Time;durP1;ratioP1;P1;durP2;ratioP2;P2;SDS_P1;SDS_P2;PMS_P1;PMS_P2;Temp;Humidity;BMP_temperature;BMP_pressure;BME280_temperature;BME280_humidity;BME280_pressure;Samples;Min_cycle;Max_cycle;Signal;HPM_P1;HPM_P2
2021/06/29 00:00:39;;;;;;;4.95;3.20;;;24.80;60.60;;;;;;4995726;28;20030;-64
2021/06/29 00:03:07;;;;;;;4.90;3.00;;;24.80;60.60;;;;;;5013473;28;20069;-64
2021/06/29 00:05:36;;;;;;;4.60;2.92;;;24.70;60.60;;;;;;5013582;28;20425;-63
2021/06/29 00:08:03;;;;;;;5.40;3.17;;;24.80;60.60;;;;;;4995716;28;20059;-63
2021/06/29 00:10:30;;;;;;;5.63;3.15;;;24.70;60.70;;;;;;5013304;28;20088;-64
2021/06/29 00:12:56;;;;;;;5.13;3.15;;;24.70;60.60;;;;;;5013355;28;20121;-64
2021/06/29 00:15:24;;;;;;;5.10;3.10;;;24.70;60.70;;;;;;5013402;28;20025;-64
2021/06/29 00:17:50;;;;;;;4.60;2.80;;;24.70;60.60;;;;;;5015799;28;20502;-64
2021/06/29 00:20:16;;;;;;;6.75;3.78;;;24.70;60.60;;;;;;5017372;28;20033;-64
2021/06/29 00:22:42;;;;;;;5.00;2.90;;;24.70;60.60;;;;;;5016963;28;20582;-63
2021/06/29 00:25:10;;;;;;;4.60;3.00;;;24.70;60.70;;;;;;4999628;28;20030;-64
2021/06/29 00:27:36;;;;;;;5.40;3.10;;;24.70;60.60;;;;;;5017536;28;20026;-64
2021/06/29 00:30:02;;;;;;;4.28;2.70;;;24.70;60.60;;;;;;5019889;28;20394;-64
2021/06/29 00:32:27;;;;;;;5.13;2.90;;;24.70;60.60;;;;;;5026210;28;20026;-64
2021/06/29 00:34:53;;;;;;;5.93;3.35;;;24.70;60.70;;;;;;5019956;28;20049;-64
2021/06/29 00:37:18;;;;;;;5.10;3.30;;;24.70;60.70;;;;;;5017240;28;20026;-64
2021/06/29 00:39:44;;;;;;;4.55;2.60;;;24.60;60.70;;;;;;5016916;28;20101;-63
2021/06/29 00:42:10;;;;;;;5.32;3.42;;;24.60;60.60;;;;;;5016474;28;20470;-64
2021/06/29 00:44:35;;;;;;;4.97;3.17;;;24.60;60.70;;;;;;5016586;28;20030;-64
2021/06/29 00:47:01;;;;;;;5.90;3.17;;;24.60;60.70;;;;;;5016644;28;20026;-64
2021/06/29 00:49:26;;;;;;;5.20;2.95;;;24.60;60.70;;;;;;5016548;28;20037;-64
2021/06/29 00:51:52;;;;;;;5.28;3.28;;;24.60;60.70;;;;;;5016940;28;20113;-64
2021/06/29 00:54:19;;;;;;;5.55;3.20;;;24.60;60.70;;;;;;5016479;28;20366;-64
2021/06/29 00:56:45;;;;;;;5.18;3.05;;;24.60;60.70;;;;;;5016449;28;20132;-64
2021/06/29 00:59:11;;;;;;;4.97;3.08;;;24.60;60.70;;;;;;5016393;28;20030;-64
2021/06/29 01:01:37;;;;;;;4.95;3.05;;;24.60;60.70;;;;;;5016280;28;20030;-64
2021/06/29 01:04:03;;;;;;;6.20;3.30;;;24.50;60.70;;;;;;5016102;28;20056;-64
2021/06/29 01:06:29;;;;;;;5.43;3.38;;;24.50;60.70;;;;;;5016061;28;20041;-64
2021/06/29 01:08:55;;;;;;;5.50;3.38;;;24.50;60.70;;;;;;5016289;28;20022;-64
2021/06/29 01:11:21;;;;;;;4.82;3.00;;;24.50;60.70;;;;;;5016450;28;20022;-64
2021/06/29 01:13:47;;;;;;;5.13;3.20;;;24.50;60.70;;;;;;5016209;28;20030;-64
2021/06/29 01:16:13;;;;;;;7.40;3.15;;;24.50;60.70;;;;;;5015953;28;20060;-64
2021/06/29 01:18:41;;;;;;;5.55;3.05;;;24.50;60.70;;;;;;5016030;28;20022;-64
2021/06/29 01:21:21;;;;;;;5.68;3.03;;;24.50;60.70;;;;;;5015789;28;20022;-64
2021/06/29 01:23:54;;;;;;;5.75;3.10;;;24.50;60.70;;;;;;5015762;28;20116;-64
2021/06/29 01:26:28;;;;;;;5.28;3.40;;;24.50;60.70;;;;;;5015872;28;20028;-64
2021/06/29 01:31:23;;;;;;;6.10;3.50;;;24.50;60.80;;;;;;5015610;28;20029;-64
2021/06/29 01:33:50;;;;;;;4.88;2.92;;;24.50;60.80;;;;;;5015611;28;20038;-64
2021/06/29 01:36:17;;;;;;;5.97;3.30;;;24.50;60.80;;;;;;5015750;28;20029;-64
2021/06/29 01:38:45;;;;;;;5.05;3.10;;;24.50;60.80;;;;;;5015630;28;20026;-64
2021/06/29 01:41:12;;;;;;;5.63;3.25;;;24.50;60.80;;;;;;5015664;28;20045;-64
2021/06/29 01:43:45;;;;;;;6.50;3.42;;;24.50;60.80;;;;;;5015364;28;20101;-64
2021/06/29 01:46:10;;;;;;;5.22;3.17;;;24.40;60.80;;;;;;5015248;28;20095;-64
2021/06/29 01:48:36;;;;;;;5.70;3.38;;;24.50;60.80;;;;;;5015472;28;20030;-64
2021/06/29 01:51:02;;;;;;;5.28;3.42;;;24.40;60.80;;;;;;5015411;28;20081;-64
2021/06/29 01:53:27;;;;;;;5.15;3.03;;;24.50;60.80;;;;;;5015465;28;20080;-64
2021/06/29 01:55:53;;;;;;;4.75;3.20;;;24.40;60.90;;;;;;5015506;28;20481;-64
2021/06/29 01:58:24;;;;;;;5.57;3.13;;;24.40;60.90;;;;;;5015286;28;20054;-64
2021/06/29 02:00:49;;;;;;;5.63;3.38;;;24.40;60.80;;;;;;5015117;28;20096;-64
2021/06/29 02:03:15;;;;;;;5.72;3.55;;;24.40;60.80;;;;;;5014861;28;20478;-64
2021/06/29 02:05:40;;;;;;;4.72;3.03;;;24.40;60.90;;;;;;5014959;28;20060;-64
2021/06/29 02:08:06;;;;;;;4.90;3.28;;;24.40;60.90;;;;;;5015032;28;20021;-64
2021/06/29 02:10:32;;;;;;;4.60;2.80;;;24.40;60.90;;;;;;5014831;28;20083;-64
2021/06/29 02:12:58;;;;;;;5.47;3.40;;;24.40;60.90;;;;;;5015138;28;20072;-64
2021/06/29 02:15:25;;;;;;;4.63;3.03;;;24.40;60.90;;;;;;5014739;28;20064;-64
2021/06/29 02:17:51;;;;;;;4.93;3.05;;;24.40;60.90;;;;;;5014870;28;20030;-64
2021/06/29 02:20:17;;;;;;;5.57;3.05;;;24.40;60.90;;;;;;5014743;28;20064;-64
2021/06/29 02:22:45;;;;;;;5.15;3.22;;;24.40;60.90;;;;;;5014824;28;20397;-64
2021/06/29 02:25:11;;;;;;;5.60;3.30;;;24.40;60.90;;;;;;5015094;28;20029;-64
2021/06/29 02:27:37;;;;;;;5.10;3.03;;;24.40;60.90;;;;;;5014725;28;20029;-64
2021/06/29 02:30:03;;;;;;;5.50;3.08;;;24.40;60.90;;;;;;5014658;28;20525;-64
2021/06/29 02:32:29;;;;;;;5.53;3.70;;;24.30;60.90;;;;;;5014648;28;20577;-64
2021/06/29 02:34:55;;;;;;;5.07;3.30;;;24.40;60.90;;;;;;5014533;28;20061;-64
2021/06/29 02:37:21;;;;;;;5.03;3.20;;;24.30;60.90;;;;;;5014491;28;20044;-64
2021/06/29 02:39:46;;;;;;;5.20;3.33;;;24.30;60.90;;;;;;5014340;28;20025;-64
2021/06/29 02:42:12;;;;;;;5.22;3.20;;;24.30;60.90;;;;;;5014804;28;20032;-64
2021/06/29 02:44:38;;;;;;;5.50;3.40;;;24.30;60.90;;;;;;5014201;28;20041;-64
2021/06/29 02:47:04;;;;;;;5.47;3.33;;;24.30;61.00;;;;;;5014509;28;20374;-64
2021/06/29 02:49:29;;;;;;;5.97;3.40;;;24.30;61.00;;;;;;5014496;28;20107;-64
2021/06/29 02:51:55;;;;;;;5.55;3.40;;;24.30;61.10;;;;;;5014536;28;20045;-64
2021/06/29 02:54:21;;;;;;;4.63;2.95;;;24.20;61.00;;;;;;4996775;28;20021;-64
2021/06/29 02:56:47;;;;;;;4.88;2.90;;;24.30;61.10;;;;;;5014850;28;20030;-64
2021/06/29 02:59:14;;;;;;;5.30;3.38;;;24.20;61.10;;;;;;5014412;28;20433;-64
2021/06/29 03:01:41;;;;;;;5.78;3.30;;;24.20;61.10;;;;;;5015026;28;20432;-64
2021/06/29 03:04:09;;;;;;;6.18;3.53;;;24.20;61.10;;;;;;5016975;28;20034;-64
2021/06/29 03:06:37;;;;;;;4.75;3.28;;;24.20;61.20;;;;;;5018325;28;20497;-64
2021/06/29 03:09:06;;;;;;;6.15;3.67;;;24.20;61.10;;;;;;5016962;28;20450;-65
2021/06/29 03:11:31;;;;;;;5.75;3.67;;;24.20;61.20;;;;;;5023155;28;20097;-64
2021/06/29 03:13:57;;;;;;;5.55;3.50;;;24.20;61.20;;;;;;5017827;28;20481;-64
2021/06/29 03:16:23;;;;;;;5.38;3.47;;;24.20;61.20;;;;;;5014942;28;20076;-64
2021/06/29 03:18:49;;;;;;;6.55;3.60;;;24.20;61.30;;;;;;5014559;28;20065;-64
2021/06/29 03:21:15;;;;;;;5.13;3.42;;;24.10;61.30;;;;;;5013028;28;20030;-64
2021/06/29 03:23:41;;;;;;;6.03;3.78;;;24.20;61.40;;;;;;5013965;28;20030;-64
2021/06/29 03:26:07;;;;;;;5.80;3.67;;;24.20;61.40;;;;;;5014097;28;20374;-64
2021/06/29 03:28:33;;;;;;;5.28;3.25;;;24.10;61.40;;;;;;5013766;28;20040;-64
2021/06/29 03:30:58;;;;;;;5.57;3.67;;;24.20;61.50;;;;;;5014075;28;20480;-64
2021/06/29 03:33:24;;;;;;;5.60;3.60;;;24.10;61.50;;;;;;5013728;28;20030;-64
2021/06/29 03:35:49;;;;;;;4.97;3.38;;;24.10;61.50;;;;;;5013624;28;20068;-64
2021/06/29 03:38:15;;;;;;;5.90;3.75;;;24.10;61.50;;;;;;5013566;28;20022;-64
2021/06/29 03:40:41;;;;;;;5.60;3.53;;;24.10;61.60;;;;;;5013813;28;20097;-64
2021/06/29 03:43:06;;;;;;;7.72;3.47;;;24.10;61.60;;;;;;5013531;28;20085;-64
2021/06/29 03:45:32;;;;;;;5.95;3.28;;;24.10;61.60;;;;;;5013383;28;20105;-64
2021/06/29 03:47:58;;;;;;;6.05;3.67;;;24.10;61.50;;;;;;5013556;28;20479;-64
2021/06/29 03:50:26;;;;;;;6.28;3.85;;;24.10;61.60;;;;;;5013315;28;20026;-64
2021/06/29 03:52:53;;;;;;;5.47;3.42;;;24.10;61.50;;;;;;5018825;28;20136;-65
2021/06/29 03:55:19;;;;;;;5.97;3.88;;;24.00;61.70;;;;;;5019888;28;20031;-64
2021/06/29 03:57:45;;;;;;;5.70;3.55;;;24.10;61.70;;;;;;5019767;28;20510;-64
2021/06/29 04:00:12;;;;;;;4.97;3.28;;;24.10;61.60;;;;;;5020128;28;20065;-64
2021/06/29 04:02:37;;;;;;;6.53;3.50;;;24.10;61.50;;;;;;5019885;28;20034;-64
2021/06/29 04:05:05;;;;;;;5.25;3.38;;;24.00;61.60;;;;;;5019913;28;20037;-64
2021/06/29 04:07:31;;;;;;;5.38;3.38;;;24.00;61.80;;;;;;5020055;28;20017;-64
2021/06/29 04:09:56;;;;;;;5.80;3.53;;;24.10;61.60;;;;;;5019796;28;20076;-64
2021/06/29 04:12:22;;;;;;;8.20;4.20;;;24.00;61.60;;;;;;5020049;28;20018;-64
2021/06/29 04:14:47;;;;;;;6.35;3.50;;;24.00;61.60;;;;;;5019801;28;20064;-64
2021/06/29 04:17:13;;;;;;;5.30;3.45;;;24.00;61.80;;;;;;5019722;28;20121;-64
2021/06/29 04:19:40;;;;;;;6.10;3.70;;;24.00;61.60;;;;;;5019994;28;20030;-64
2021/06/29 04:22:07;;;;;;;6.97;4.15;;;24.00;61.70;;;;;;5019622;28;20022;-64
2021/06/29 04:24:32;;;;;;;6.07;3.58;;;24.00;61.60;;;;;;5019488;28;20505;-64
2021/06/29 04:26:58;;;;;;;5.43;3.33;;;24.00;61.70;;;;;;5019864;28;20026;-64
2021/06/29 04:29:24;;;;;;;5.50;3.65;;;24.00;61.70;;;;;;5019733;28;20026;-64
2021/06/29 04:31:49;;;;;;;5.55;3.60;;;24.00;61.80;;;;;;5019643;28;20497;-65
2021/06/29 04:34:15;;;;;;;5.00;3.35;;;24.00;61.70;;;;;;5019624;28;20034;-64
2021/06/29 04:36:40;;;;;;;5.53;3.22;;;24.00;61.60;;;;;;5019640;28;20486;-64
2021/06/29 04:39:06;;;;;;;5.80;3.70;;;24.00;61.60;;;;;;5019659;28;20022;-64
2021/06/29 04:41:33;;;;;;;5.53;3.42;;;24.00;61.70;;;;;;5019970;28;20033;-64
2021/06/29 04:43:58;;;;;;;5.10;3.47;;;24.00;61.50;;;;;;5019503;28;20112;-64
2021/06/29 04:46:24;;;;;;;5.68;3.67;;;24.00;61.60;;;;;;5019411;28;20120;-64
2021/06/29 04:48:50;;;;;;;5.18;3.47;;;24.00;61.50;;;;;;5020055;28;20115;-64
2021/06/29 04:51:15;;;;;;;5.75;3.50;;;24.00;61.60;;;;;;5022131;28;20033;-64
2021/06/29 04:53:41;;;;;;;5.32;3.58;;;24.00;61.50;;;;;;5020245;28;20026;-64
2021/06/29 04:56:16;;;;;;;5.40;3.33;;;24.10;61.30;;;;;;5019958;28;20029;-64
2021/06/29 04:58:57;;;;;;;6.70;3.75;;;24.10;61.10;;;;;;5019988;28;20373;-64
2021/06/29 05:01:23;;;;;;;5.82;3.25;;;24.10;61.30;;;;;;5019897;28;20105;-64
2021/06/29 05:03:49;;;;;;;6.68;3.35;;;24.00;61.20;;;;;;5017482;28;20121;-64
2021/06/29 05:06:15;;;;;;;5.00;3.20;;;24.00;61.20;;;;;;5016784;28;20037;-64
2021/06/29 05:08:42;;;;;;;5.07;2.97;;;24.00;61.20;;;;;;5016628;28;20030;-64
2021/06/29 05:11:07;;;;;;;5.88;3.47;;;24.00;61.20;;;;;;5016570;28;20022;-64
2021/06/29 05:13:33;;;;;;;5.10;3.30;;;24.00;61.30;;;;;;5016227;28;20034;-64
2021/06/29 05:15:58;;;;;;;5.75;3.53;;;24.00;61.30;;;;;;5016566;28;20052;-64
2021/06/29 05:18:24;;;;;;;5.10;3.15;;;24.00;61.40;;;;;;5016165;28;20022;-64
2021/06/29 05:20:50;;;;;;;5.38;3.53;;;24.00;61.40;;;;;;5015859;28;20076;-64
2021/06/29 05:23:15;;;;;;;5.22;3.15;;;24.00;61.30;;;;;;5015833;28;20033;-65
2021/06/29 05:25:41;;;;;;;5.28;3.60;;;24.00;61.30;;;;;;4998674;28;20374;-64
2021/06/29 05:28:07;;;;;;;5.40;3.50;;;24.00;61.30;;;;;;5016111;28;20073;-64
2021/06/29 05:30:32;;;;;;;4.65;3.00;;;24.00;61.20;;;;;;5016376;28;20032;-64
2021/06/29 05:32:58;;;;;;;6.05;3.65;;;24.00;61.20;;;;;;5016213;28;20032;-64
2021/06/29 05:35:25;;;;;;;7.93;3.70;;;24.00;61.10;;;;;;5016220;28;20072;-64
2021/06/29 05:37:50;;;;;;;5.28;3.35;;;24.00;61.20;;;;;;5020113;28;20029;-64
2021/06/29 05:40:16;;;;;;;5.50;3.30;;;24.00;61.20;;;;;;5023642;28;20414;-64
2021/06/29 05:42:42;;;;;;;7.32;4.20;;;24.00;61.20;;;;;;5018664;28;20029;-64
2021/06/29 05:45:09;;;;;;;5.93;3.53;;;24.00;61.20;;;;;;5018320;28;20075;-64
2021/06/29 05:47:36;;;;;;;6.05;3.63;;;24.00;61.30;;;;;;5017379;28;20025;-64
2021/06/29 05:50:04;;;;;;;5.75;3.72;;;24.00;61.40;;;;;;5016194;28;20033;-64
2021/06/29 05:52:30;;;;;;;6.18;4.03;;;24.00;61.30;;;;;;5015857;28;20033;-64
2021/06/29 05:54:56;;;;;;;6.45;3.53;;;24.00;61.20;;;;;;5015865;28;20033;-64
2021/06/29 05:57:21;;;;;;;5.10;3.58;;;24.00;61.30;;;;;;5015652;28;20025;-64
2021/06/29 05:59:47;;;;;;;5.47;3.20;;;24.00;61.20;;;;;;5015701;28;20026;-64
2021/06/29 06:02:13;;;;;;;5.22;3.42;;;24.00;61.20;;;;;;5015976;28;20025;-64
2021/06/29 06:04:39;;;;;;;5.40;3.58;;;24.00;61.10;;;;;;5015720;28;20386;-64
2021/06/29 06:07:05;;;;;;;5.82;3.63;;;24.00;61.10;;;;;;5015594;28;20105;-64
2021/06/29 06:09:31;;;;;;;5.88;3.60;;;24.00;61.00;;;;;;5015934;28;20025;-64
2021/06/29 06:11:57;;;;;;;6.20;3.65;;;24.00;61.00;;;;;;5015916;28;20026;-65
2021/06/29 06:14:22;;;;;;;7.43;4.45;;;24.00;61.00;;;;;;5033490;28;20037;-63
2021/06/29 06:16:48;;;;;;;9.43;4.80;;;24.00;62.20;;;;;;5035048;28;20365;-63
2021/06/29 06:19:14;;;;;;;7.80;5.38;;;24.00;62.20;;;;;;5034821;28;20025;-64
2021/06/29 06:21:39;;;;;;;9.00;5.00;;;24.00;63.10;;;;;;5034996;28;20014;-64
2021/06/29 06:24:06;;;;;;;8.13;4.95;;;23.90;63.10;;;;;;5034391;28;20430;-64
2021/06/29 06:26:32;;;;;;;7.20;4.63;;;23.90;63.00;;;;;;5034607;28;20132;-64
2021/06/29 06:28:57;;;;;;;6.60;4.47;;;23.90;62.40;;;;;;5035111;28;20057;-63
2021/06/29 06:31:23;;;;;;;8.43;5.78;;;23.90;63.00;;;;;;5044163;28;20481;-65
2021/06/29 06:33:51;;;;;;;9.07;5.95;;;23.90;63.60;;;;;;5045226;28;20442;-64
2021/06/29 06:36:17;;;;;;;8.85;5.60;;;24.00;63.80;;;;;;5046066;28;20029;-64
2021/06/29 06:38:43;;;;;;;10.43;5.55;;;23.90;63.80;;;;;;5044980;28;20037;-63
2021/06/29 06:41:13;;;;;;;9.80;4.32;;;24.00;63.60;;;;;;5045540;28;20032;-65
2021/06/29 06:43:39;;;;;;;9.18;5.45;;;24.00;63.10;;;;;;5046012;28;20109;-63
2021/06/29 06:46:09;;;;;;;7.43;4.50;;;24.00;63.50;;;;;;5044295;28;20053;-64
2021/06/29 06:48:35;;;;;;;6.97;4.63;;;24.00;62.60;;;;;;5050177;28;20486;-63
2021/06/29 06:51:01;;;;;;;7.13;4.53;;;24.00;62.50;;;;;;5062656;28;20056;-63
2021/06/29 06:53:26;;;;;;;7.93;4.78;;;24.00;62.50;;;;;;5053697;28;20063;-63
2021/06/29 06:55:52;;;;;;;8.20;4.30;;;24.00;62.40;;;;;;5053745;28;20028;-63
2021/06/29 06:58:17;;;;;;;7.47;4.88;;;24.00;62.40;;;;;;5053743;28;20056;-64
2021/06/29 07:00:43;;;;;;;6.53;4.20;;;24.00;62.40;;;;;;5053323;28;20029;-63
2021/06/29 07:03:08;;;;;;;6.50;3.78;;;24.00;62.30;;;;;;5044615;28;20040;-63
2021/06/29 07:05:34;;;;;;;6.47;3.90;;;24.00;62.30;;;;;;5032970;28;20030;-63
2021/06/29 07:07:59;;;;;;;8.02;4.35;;;24.00;62.30;;;;;;5033430;28;20442;-63
2021/06/29 07:10:26;;;;;;;7.88;4.50;;;24.00;62.40;;;;;;5033326;28;20026;-63
2021/06/29 07:12:51;;;;;;;6.07;3.95;;;24.00;62.50;;;;;;5033446;28;20091;-63
2021/06/29 07:15:17;;;;;;;8.35;3.70;;;24.00;62.50;;;;;;5032869;28;20025;-63
2021/06/29 07:17:42;;;;;;;7.22;3.95;;;24.00;62.50;;;;;;5033636;28;20033;-63
2021/06/29 07:20:09;;;;;;;6.20;3.85;;;24.00;62.60;;;;;;5033293;28;20543;-63
2021/06/29 07:22:36;;;;;;;6.40;3.97;;;24.00;62.40;;;;;;5033045;28;20486;-63
2021/06/29 07:25:04;;;;;;;8.05;4.63;;;24.00;62.50;;;;;;5032554;28;20091;-64
2021/06/29 07:27:30;;;;;;;6.28;3.97;;;24.00;62.50;;;;;;5032268;28;20049;-63
2021/06/29 07:29:55;;;;;;;10.60;4.55;;;24.00;62.50;;;;;;5040275;28;20031;-64
2021/06/29 07:32:21;;;;;;;7.05;4.53;;;24.00;62.50;;;;;;5043929;28;20041;-63
2021/06/29 07:34:46;;;;;;;6.53;3.83;;;24.00;62.50;;;;;;5041734;28;20460;-64
2021/06/29 07:37:12;;;;;;;6.97;4.38;;;24.00;62.40;;;;;;5032663;28;20572;-66
2021/06/29 07:39:37;;;;;;;6.95;4.13;;;24.00;62.40;;;;;;5032673;28;20048;-65
2021/06/29 07:42:03;;;;;;;7.22;4.05;;;24.00;62.60;;;;;;5032466;28;20497;-65
2021/06/29 07:44:29;;;;;;;6.43;4.32;;;24.00;62.40;;;;;;5031923;28;20048;-64
2021/06/29 07:46:57;;;;;;;7.28;4.05;;;24.00;62.30;;;;;;5032547;28;20056;-63
2021/06/29 07:49:23;;;;;;;7.15;4.22;;;24.10;62.30;;;;;;5032505;28;20066;-63
2021/06/29 07:51:48;;;;;;;7.43;4.30;;;24.00;62.40;;;;;;5032545;28;20071;-63
2021/06/29 07:54:14;;;;;;;6.50;4.18;;;24.00;62.40;;;;;;5032015;28;20025;-63
2021/06/29 07:56:40;;;;;;;6.35;4.30;;;24.10;62.40;;;;;;5032445;28;20413;-63
2021/06/29 07:59:05;;;;;;;6.40;3.67;;;24.10;62.50;;;;;;5032542;28;20028;-63
2021/06/29 08:01:31;;;;;;;6.72;4.18;;;24.10;62.40;;;;;;5032527;28;20040;-64
2021/06/29 08:03:57;;;;;;;8.30;4.53;;;24.10;62.30;;;;;;5031933;28;20049;-65
2021/06/29 08:06:22;;;;;;;7.63;4.40;;;24.10;62.40;;;;;;5032903;28;20477;-64
2021/06/29 08:08:48;;;;;;;7.05;4.60;;;24.20;62.30;;;;;;5032202;28;20053;-64
2021/06/29 08:11:13;;;;;;;5.88;4.13;;;24.20;62.30;;;;;;5049370;28;20417;-63
2021/06/29 08:13:39;;;;;;;8.25;4.70;;;24.20;62.30;;;;;;5051811;28;20028;-63
2021/06/29 08:16:06;;;;;;;8.40;4.13;;;24.20;62.10;;;;;;5052078;28;20102;-63
2021/06/29 08:18:33;;;;;;;6.85;4.05;;;24.20;62.30;;;;;;5052157;28;20104;-63
2021/06/29 08:20:59;;;;;;;6.95;4.25;;;24.20;62.30;;;;;;5052003;28;20017;-64
2021/06/29 08:23:26;;;;;;;8.68;4.57;;;24.20;62.40;;;;;;5051615;28;20503;-65
2021/06/29 08:25:52;;;;;;;7.32;4.28;;;24.20;62.40;;;;;;5041127;28;20034;-63
2021/06/29 08:28:18;;;;;;;6.13;3.92;;;24.20;62.30;;;;;;5032247;28;20014;-64
2021/06/29 08:30:44;;;;;;;7.50;4.45;;;24.20;62.30;;;;;;5032387;28;20113;-64
2021/06/29 08:33:11;;;;;;;8.88;4.20;;;24.20;62.30;;;;;;5032318;28;20504;-65
2021/06/29 08:35:42;;;;;;;6.63;4.43;;;24.20;62.30;;;;;;5032016;28;20025;-65
2021/06/29 08:38:07;;;;;;;7.75;4.80;;;24.20;62.30;;;;;;5033582;28;20025;-64
2021/06/29 08:40:37;;;;;;;7.85;4.45;;;24.20;62.40;;;;;;5036023;28;20033;-65
2021/06/29 08:43:08;;;;;;;7.60;4.45;;;24.20;62.40;;;;;;5036010;28;20112;-63
2021/06/29 08:45:35;;;;;;;8.52;4.47;;;24.20;62.30;;;;;;5035305;28;20133;-65
2021/06/29 08:48:02;;;;;;;5.97;4.13;;;24.20;62.50;;;;;;5042288;28;20079;-64
2021/06/29 08:50:30;;;;;;;7.97;4.72;;;24.20;62.50;;;;;;5044788;28;20445;-64
2021/06/29 08:53:03;;;;;;;9.05;4.18;;;24.20;62.40;;;;;;5052360;28;20102;-63
2021/06/29 08:55:38;;;;;;;6.65;3.95;;;24.20;62.50;;;;;;5055411;28;20092;-66
2021/06/29 08:58:04;;;;;;;8.13;4.03;;;24.30;62.30;;;;;;5054430;28;20415;-66
2021/06/29 09:00:30;;;;;;;6.95;4.25;;;24.30;62.10;;;;;;5054137;28;20021;-66
2021/06/29 09:02:55;;;;;;;6.10;3.42;;;24.30;62.10;;;;;;5054340;28;20082;-66
2021/06/29 09:05:23;;;;;;;7.78;4.20;;;24.30;62.00;;;;;;5054299;28;20029;-65
2021/06/29 09:08:08;;;;;;;5.95;3.85;;;24.40;62.00;;;;;;5054328;28;20072;-66
2021/06/29 09:10:36;;;;;;;7.20;4.30;;;24.40;62.00;;;;;;5054261;28;20028;-66
2021/06/29 09:13:04;;;;;;;6.22;4.00;;;24.40;61.80;;;;;;5055536;28;20112;-66
2021/06/29 09:15:42;;;;;;;6.30;3.58;;;24.40;62.00;;;;;;5055044;28;20056;-66
2021/06/29 09:18:13;;;;;;;7.90;4.00;;;24.30;61.90;;;;;;5055292;28;20025;-66
2021/06/29 09:20:58;;;;;;;7.05;4.00;;;24.30;62.00;;;;;;5054964;28;20021;-63
2021/06/29 09:23:30;;;;;;;6.82;4.43;;;24.40;62.00;;;;;;5055278;28;20033;-65
2021/06/29 09:25:58;;;;;;;6.57;3.60;;;24.40;61.90;;;;;;5055812;28;20021;-64
2021/06/29 09:28:27;;;;;;;7.07;3.95;;;24.40;61.90;;;;;;5055495;28;20082;-65
2021/06/29 09:30:58;;;;;;;7.30;3.90;;;24.40;61.80;;;;;;5055735;28;20508;-64
2021/06/29 09:33:27;;;;;;;6.45;3.83;;;24.40;61.70;;;;;;5063361;28;20025;-65
2021/06/29 09:35:54;;;;;;;5.43;3.83;;;24.50;61.70;;;;;;5056717;28;20111;-64
2021/06/29 09:38:23;;;;;;;6.18;4.07;;;24.50;61.60;;;;;;5036950;28;20128;-64
2021/06/29 09:41:19;;;;;;;6.22;4.07;;;24.50;61.60;;;;;;5055184;28;20033;-63
2021/06/29 09:43:51;;;;;;;5.63;3.67;;;24.50;61.60;;;;;;5050141;28;20133;-63
2021/06/29 09:46:22;;;;;;;7.60;3.90;;;24.50;61.50;;;;;;5054456;28;20045;-64
2021/06/29 09:48:50;;;;;;;6.82;4.30;;;24.50;61.40;;;;;;5054198;28;20035;-64
2021/06/29 09:51:24;;;;;;;6.22;4.05;;;24.50;61.60;;;;;;5054043;28;20028;-64
2021/06/29 09:53:52;;;;;;;6.50;3.85;;;24.50;61.40;;;;;;5054411;28;20021;-64
2021/06/29 09:56:23;;;;;;;7.30;4.25;;;24.50;61.40;;;;;;5054457;28;20025;-63
2021/06/29 09:58:56;;;;;;;7.15;4.05;;;24.50;61.30;;;;;;5054667;28;20029;-66
2021/06/29 10:01:31;;;;;;;7.55;4.38;;;24.60;61.30;;;;;;5054503;28;20036;-64
2021/06/29 10:03:57;;;;;;;;;;;24.60;61.20;;;;;;5054401;28;20078;-66
2021/06/29 10:06:28;;;;;;;7.40;4.18;;;24.60;61.30;;;;;;5051723;28;19917;-65
2021/06/29 10:09:12;;;;;;;7.43;3.97;;;24.70;61.20;;;;;;5034222;28;20018;-64
2021/06/29 10:11:38;;;;;;;5.82;4.07;;;24.60;61.20;;;;;;5016498;28;20394;-64
2021/06/29 10:14:09;;;;;;;6.57;4.38;;;24.60;61.10;;;;;;5033763;28;20053;-65
2021/06/29 10:16:39;;;;;;;6.72;4.28;;;24.60;61.20;;;;;;5034166;28;20096;-65
2021/06/29 10:21:37;;;;;;;6.43;3.92;;;24.70;61.10;;;;;;5034915;28;20029;-64
2021/06/29 10:24:08;;;;;;;5.90;3.95;;;24.60;61.20;;;;;;5016861;28;20040;-65
2021/06/29 10:26:38;;;;;;;7.20;4.50;;;24.60;61.20;;;;;;5035787;28;20029;-64
2021/06/29 10:29:07;;;;;;;6.10;4.10;;;24.60;61.20;;;;;;5034033;28;20545;-65
2021/06/29 10:31:34;;;;;;;6.15;3.92;;;24.60;61.10;;;;;;5034135;28;20028;-63
2021/06/29 10:34:04;;;;;;;6.38;3.85;;;24.70;61.10;;;;;;5033438;28;20022;-66
2021/06/29 10:36:31;;;;;;;7.63;3.97;;;24.60;61.20;;;;;;5034074;28;20025;-66
2021/06/29 10:38:58;;;;;;;6.95;4.38;;;24.60;61.10;;;;;;5033808;28;20485;-64
2021/06/29 10:41:26;;;;;;;7.00;4.30;;;24.60;61.20;;;;;;5033859;28;20477;-64
2021/06/29 10:43:53;;;;;;;5.85;3.63;;;24.60;61.20;;;;;;5033448;28;20473;-64
2021/06/29 10:46:41;;;;;;;7.10;4.45;;;24.70;61.10;;;;;;5039270;28;20141;-64
2021/06/29 10:49:29;;;;;;;6.13;3.58;;;24.70;60.90;;;;;;5043883;28;20033;-65
2021/06/29 10:51:56;;;;;;;6.50;4.28;;;24.80;60.80;;;;;;5039886;28;20034;-63
2021/06/29 10:54:34;;;;;;;6.15;4.10;;;24.70;60.80;;;;;;5034259;28;20030;-64
2021/06/29 10:57:06;;;;;;;6.90;4.30;;;24.80;60.80;;;;;;5034049;28;20048;-65
2021/06/29 10:59:33;;;;;;;7.22;4.00;;;24.80;61.00;;;;;;5035372;28;20051;-66
2021/06/29 11:01:58;;;;;;;6.60;3.95;;;24.80;60.90;;;;;;5031884;28;20523;-67
2021/06/29 11:04:46;;;;;;;7.32;4.57;;;24.70;60.90;;;;;;5030708;28;20254;-67
2021/06/29 11:07:29;;;;;;;7.07;4.53;;;24.70;61.00;;;;;;5031954;28;20022;-66
2021/06/29 11:10:07;;;;;;;6.53;3.92;;;24.70;61.00;;;;;;5032371;28;20029;-67
2021/06/29 11:12:46;;;;;;;7.28;4.57;;;24.70;60.90;;;;;;5031911;28;20036;-66
2021/06/29 11:15:12;;;;;;;5.32;3.47;;;24.70;61.00;;;;;;5032266;28;20030;-67
2021/06/29 11:17:50;;;;;;;5.97;3.55;;;24.70;61.00;;;;;;5032588;28;20496;-67
2021/06/29 11:20:18;;;;;;;6.35;3.95;;;24.70;60.90;;;;;;5033300;28;20030;-67
2021/06/29 11:22:52;;;;;;;5.78;3.70;;;24.70;60.90;;;;;;5032773;28;20445;-65
2021/06/29 11:25:36;;;;;;;;;;;24.70;60.90;;;;;;5033525;28;20482;-64
2021/06/29 11:28:05;;;;;;;6.45;4.10;;;24.80;60.70;;;;;;5033452;28;19909;-64
2021/06/29 11:31:01;;;;;;;7.03;3.95;;;24.70;60.90;;;;;;5033426;28;20037;-64
2021/06/29 11:33:44;;;;;;;7.47;4.28;;;24.80;60.70;;;;;;5032908;28;20071;-63
2021/06/29 11:36:25;;;;;;;6.43;4.00;;;24.80;60.60;;;;;;5037379;28;20029;-64
2021/06/29 11:39:00;;;;;;;5.72;3.60;;;24.90;60.40;;;;;;5038654;28;20036;-64
2021/06/29 11:41:25;;;;;;;6.43;3.38;;;24.90;60.50;;;;;;5016620;28;20418;-65
2021/06/29 11:43:52;;;;;;;5.75;3.83;;;24.90;60.60;;;;;;5033129;28;20037;-66
2021/06/29 11:46:54;;;;;;;6.88;4.05;;;24.90;60.70;;;;;;5033240;28;20413;-66
2021/06/29 11:49:41;;;;;;;6.45;3.70;;;24.90;60.50;;;;;;5033265;28;20064;-70
2021/06/29 11:52:18;;;;;;;6.93;4.18;;;24.90;60.40;;;;;;5035983;28;20018;-65
2021/06/29 11:55:00;;;;;;;6.32;3.85;;;24.90;60.70;;;;;;5032915;28;20051;-65
2021/06/29 11:57:39;;;;;;;6.20;4.05;;;24.90;60.60;;;;;;5033159;28;20394;-65
2021/06/29 12:00:27;;;;;;;5.72;3.70;;;24.90;60.60;;;;;;5033048;28;20481;-64
2021/06/29 12:02:55;;;;;;;6.03;3.42;;;25.00;60.30;;;;;;5033040;28;20056;-64
2021/06/29 12:05:30;;;;;;;5.85;3.60;;;25.00;60.30;;;;;;5032341;28;20416;-65
2021/06/29 12:07:57;;;;;;;7.75;4.03;;;25.10;60.20;;;;;;5033090;28;20029;-63
2021/06/29 12:10:25;;;;;;;5.68;3.25;;;25.00;60.20;;;;;;5041712;28;20393;-64
2021/06/29 12:12:51;;;;;;;6.15;4.18;;;25.20;60.10;;;;;;5042841;28;20446;-66
2021/06/29 12:15:23;;;;;;;6.00;3.92;;;25.10;60.10;;;;;;5045420;28;20081;-66
2021/06/29 12:17:53;;;;;;;6.05;3.70;;;25.10;60.10;;;;;;5037978;28;20485;-66
2021/06/29 12:20:22;;;;;;;5.88;3.75;;;25.20;59.90;;;;;;5036451;28;20026;-66
2021/06/29 12:22:49;;;;;;;7.45;3.95;;;25.30;59.80;;;;;;5036638;28;20025;-66
2021/06/29 12:25:19;;;;;;;6.30;4.13;;;25.20;59.80;;;;;;5037029;28;20025;-66
2021/06/29 12:27:53;;;;;;;4.88;2.97;;;25.30;59.80;;;;;;5036535;28;20096;-66
2021/06/29 12:30:43;;;;;;;7.07;4.20;;;25.30;59.70;;;;;;5036880;28;20025;-66
2021/06/29 12:33:37;;;;;;;5.75;3.65;;;25.40;59.50;;;;;;5019140;28;20426;-66
2021/06/29 12:36:08;;;;;;;6.10;3.70;;;25.40;59.60;;;;;;5036765;28;20017;-66
2021/06/29 12:39:01;;;;;;;5.97;3.67;;;25.40;59.60;;;;;;5036996;28;20256;-66
2021/06/29 12:41:32;;;;;;;6.93;4.40;;;25.40;59.60;;;;;;5034191;28;20032;-66
2021/06/29 12:44:05;;;;;;;5.20;3.20;;;25.40;59.60;;;;;;5036109;28;20145;-66
2021/06/29 12:46:39;;;;;;;5.97;3.50;;;25.40;59.50;;;;;;5035874;28;20048;-66
2021/06/29 12:49:08;;;;;;;5.97;3.78;;;25.40;59.50;;;;;;5036884;28;20021;-66
2021/06/29 12:51:42;;;;;;;6.35;3.95;;;25.40;59.60;;;;;;5036002;28;20474;-66
2021/06/29 12:54:10;;;;;;;3.97;2.67;;;25.30;59.70;;;;;;5035913;28;20030;-67
2021/06/29 12:56:38;;;;;;;4.82;2.95;;;25.40;59.70;;;;;;5035937;28;20466;-66
2021/06/29 12:59:05;;;;;;;6.32;3.83;;;25.40;59.60;;;;;;5036530;28;20041;-66